Boulder Creek, CA

3:03 PM PST on December 03, 2016 (GMT -0800)
Mesa Drive | | Change Station

Elev 593 ft 37.13 °N, 122.11 °W | Updated 4 minutes ago

Scattered Clouds
Scattered Clouds
67.6 °F
Feels Like 67.6 °F
N
0.6
Wind Variable Wind from SE
Gusts 2.5 mph

Today
High -- | Low -- °F
--% Chance of Precip.
Yesterday
High -- | Low -- °F
Precip. -- in
Pressure 30.17 in
Visibility 10.0 miles
Clouds Few 6000 ft
Few 9000 ft
Scattered Clouds 12000 ft
Dew Point 55 °F
Humidity 63%
Rainfall 0.00 in
Snow Depth Not available.
7:05 AM 4:51 PM
Waxing Crescent, 18% visible
METAR KSJC 032253Z 29009KT 10SM FEW060 FEW090 SCT120 18/02 A3018 RMK AO2 SLP217 T01830017
Pressure 30.17 in
Visibility 10.0 miles
Clouds Few 6000 ft
Few 9000 ft
Scattered Clouds 12000 ft
Dew Point 55 °F
Humidity 63%
Rainfall 0.00 in
Snow Depth Not available.
7:05 AM 4:51 PM
Waxing Crescent, 18% visible
METAR KSJC 032253Z 29009KT 10SM FEW060 FEW090 SCT120 18/02 A3018 RMK AO2 SLP217 T01830017

10-Day Weather Forecast

Almanac

Astronomy

Dec. 03, 2016 Rise Set
Actual Time
Civil Twilight
Nautical Twilight
Astronomical Twilight
Moon
Length of Visible Light
Length of Day
Tomorrow will be .
, % of the Moon is Illuminated

Today's Extremes

State Highs State Lows

Community

WunderPhotos

Upload Photos

1,955,540 photos uploaded!

WunderBlog® & News

Nearby

Air Quality

  Air Quality AQ Index Pollutant
Not available.

Snow Depth

Station Depth Elevation

Earthquake Activity

City Distance Mag. Time & Date
Minimum magnitude displayed is 2.5.

Coastal Water Temperatures

Place Temperature

Stations

Nearby Weather Stations

Station Location Temp. Windchill Dew Point Humidity Wind Precip. Elev Updated Type
                   

Watches & Warnings

There are currently no watches in effect.